CTD4 weather

Public forecast

Using degrees Celsius for public forecast. Weather courtesy of forecast.io.

Closest aviation weather report (METAR) to Baie-St-Paul Heliport

Closest report is C J.H.L.(Joe) Lecomte) Heliport, 51.7 nm (95.8 km) SW. Retrieved 2020/08/15 10:00 UTC (58 minutes ago):

CYOY 151000Z AUTO 05002KT 9SM CLR 14/13 A3016 RMK SLP216

Closest aviation forecast (TAF) to Baie-St-Paul Heliport

Forecast is more than 12 hours old.

Closest forecast is Charlevoix Airport, 15.0 nm (27.9 km) NE. Retrieved 2018/06/10 18:00 UTC (2 years ago):

TAF CYML 101730Z 1018/1106 12005KT P6SM FEW060 FM102100 14006KT P6SM SCT080 BECMG 1021/1023 VRB03KT RMK NXT FCST BY 110000Z